Terminal Aerodrome Forecast
Issued by NWS Melbourne, FL

Home | Current Version | Previous Version | Text Only | Print | Product List | Glossary On
Versions: 1 2 3 4 5 6 7 8 9 10 11 12 13
000
FTUS42 KMLB 270500
TAFDAB
TAF
KDAB 270522Z 2706/2806 31003KT P6SM OVC045
      TEMPO 2709/2713 5SM BR BKN010
     FM271500 06006KT P6SM BKN040
     FM280300 06003KT 5SM BR BKN012 OVC020
      TEMPO 2803/2806 2SM BR OVC004=

USA.gov is the U.S. government's official web portal to all federal, state and local government web resources and services.